Mathias Lobato, Brazil
Current Conditions -  °F | °C
As of 6:00 PM on Thursday 23 Oct 2014 (Local Time) from SBVT Reporting Station
Broken Clouds Broken Clouds  
Wind Chill: 75°   Ceiling: 5000
Heat Index: 75°   Visibility: 6mi
Dew Point: 61°   Wind: 7mph
Humidity: 61%   Direction: 170°S
Pressure: 30.06"   Gusts: NA
Location:  18.56°S, 41.91°W
Report Text: SBVT 232000Z 17006KT 9999 FEW030 BKN050 24/16 Q1018
Loading
Personal Weather Stations






























Interactive Weather Map
Tropical Storm Tracking
New forecast layout! Learn more

10-Day Weather Forecast

Advertisements
Track Severe Weather on mobile